createdAt,value
2018-12-25T00:00:10.501Z,80.53
2018-12-25T00:01:10.488Z,79.91
2018-12-25T00:02:10.479Z,80.12
2018-12-25T00:03:10.466Z,80.57
2018-12-25T00:04:10.455Z,80.32
2018-12-25T00:05:10.446Z,80.53
2018-12-25T00:06:10.435Z,80.43
2018-12-25T00:07:10.422Z,80.43
2018-12-25T00:08:10.414Z,80.43
2018-12-25T00:09:10.403Z,80.53
2018-12-25T00:10:10.388Z,80.53
2018-12-25T00:11:10.378Z,80.43
2018-12-25T00:12:10.371Z,79.70
2018-12-25T00:13:10.356Z,80.01
2018-12-25T00:14:10.357Z,79.91
2018-12-25T00:15:10.342Z,80.53
2018-12-25T00:16:10.337Z,80.22
2018-12-25T00:17:10.316Z,80.53
2018-12-25T00:18:10.301Z,80.01
2018-12-25T00:19:10.290Z,80.63
2018-12-25T00:20:10.281Z,80.01
2018-12-25T00:21:10.266Z,79.87
2018-12-25T00:22:10.254Z,79.87
2018-12-25T00:23:10.249Z,80.12
2018-12-25T00:24:10.235Z,79.77
2018-12-25T00:25:10.222Z,79.66
2018-12-25T00:26:10.215Z,79.87
2018-12-25T00:27:10.205Z,80.63
2018-12-25T00:28:10.190Z,80.01
2018-12-25T00:29:10.185Z,79.87
2018-12-25T00:30:10.169Z,79.77
2018-12-25T00:31:10.173Z,80.01
2018-12-25T00:32:10.173Z,80.60
2018-12-25T00:33:10.180Z,79.98
2018-12-25T00:34:10.186Z,80.08
2018-12-25T00:35:10.124Z,80.49
2018-12-25T00:36:10.123Z,80.08
2018-12-25T00:37:10.128Z,79.56
2018-12-25T00:38:10.077Z,79.66
2018-12-25T00:39:10.067Z,79.56
2018-12-25T00:40:10.056Z,79.36
2018-12-25T00:41:10.044Z,79.36
2018-12-25T00:42:10.041Z,79.66
2018-12-25T00:43:10.023Z,79.36
2018-12-25T00:44:10.020Z,79.15
2018-12-25T00:45:10.000Z,79.36
2018-12-25T00:46:09.992Z,79.26
2018-12-25T00:47:09.977Z,79.15
2018-12-25T00:48:09.969Z,79.05
2018-12-25T00:49:14.659Z,80.08
2018-12-25T00:50:09.944Z,80.29
2018-12-25T00:51:09.933Z,79.77
2018-12-25T00:52:09.926Z,80.08
2018-12-25T00:53:09.915Z,80.08
2018-12-25T00:54:09.900Z,79.98
2018-12-25T00:55:09.892Z,80.60
2018-12-25T00:56:09.879Z,80.49
2018-12-25T00:57:09.878Z,80.60
2018-12-25T00:58:09.860Z,80.39
2018-12-25T00:59:09.851Z,80.49
2018-12-25T01:00:09.837Z,80.08
2018-12-25T01:01:09.827Z,79.87
2018-12-25T01:02:09.811Z,80.70
2018-12-25T01:03:09.901Z,80.29
2018-12-25T01:04:09.792Z,80.18
2018-12-25T01:05:09.779Z,80.08
2018-12-25T01:06:09.769Z,80.70
2018-12-25T01:07:09.769Z,80.08
2018-12-25T01:08:09.747Z,80.91
2018-12-25T01:09:09.735Z,81.64
2018-12-25T01:10:09.754Z,81.32
2018-12-25T01:11:09.713Z,81.15
2018-12-25T01:12:09.704Z,81.53
2018-12-25T01:13:09.690Z,81.43
2018-12-25T01:14:09.679Z,80.91
2018-12-25T01:15:09.669Z,81.26
2018-12-25T01:16:09.663Z,81.43
2018-12-25T01:17:09.651Z,81.64
2018-12-25T01:18:09.713Z,81.94
2018-12-25T01:19:09.626Z,81.64
2018-12-25T01:20:09.615Z,81.64
2018-12-25T01:21:09.603Z,81.84
2018-12-25T01:22:09.595Z,81.53
2018-12-25T01:23:09.581Z,81.84
2018-12-25T01:24:09.569Z,82.04
2018-12-25T01:25:09.561Z,82.25
2018-12-25T01:26:09.548Z,82.15
2018-12-25T01:27:09.536Z,82.36
2018-12-25T01:28:09.532Z,82.46
2018-12-25T01:29:09.515Z,82.67
2018-12-25T01:30:09.511Z,82.77
2018-12-25T01:31:09.496Z,82.67
2018-12-25T01:32:09.485Z,82.56
2018-12-25T01:33:09.478Z,82.98
2018-12-25T01:34:09.462Z,82.87
2018-12-25T01:35:09.451Z,82.36
2018-12-25T01:36:09.440Z,82.56
2018-12-25T01:37:09.427Z,83.19
2018-12-25T01:38:09.417Z,82.87
2018-12-25T01:39:09.409Z,83.29
2018-12-25T01:40:09.402Z,83.19
2018-12-25T01:41:09.386Z,83.29
2018-12-25T01:42:09.378Z,83.39
2018-12-25T01:43:09.363Z,83.39
2018-12-25T01:44:09.348Z,83.50
2018-12-25T01:45:09.337Z,83.29
2018-12-25T01:46:09.330Z,83.60
2018-12-25T01:47:09.314Z,83.29
2018-12-25T01:48:09.308Z,83.29
2018-12-25T01:49:09.297Z,82.67
2018-12-25T01:50:09.283Z,83.15
2018-12-25T01:51:09.273Z,83.08
2018-12-25T01:52:09.261Z,83.05
2018-12-25T01:53:09.251Z,83.05
2018-12-25T01:54:09.240Z,83.19
2018-12-25T01:55:09.231Z,82.98
2018-12-25T01:56:09.221Z,83.19
2018-12-25T01:57:09.210Z,82.77
2018-12-25T01:58:09.195Z,83.39
2018-12-25T01:59:09.183Z,83.19
2018-12-25T02:00:09.180Z,82.98
2018-12-25T02:01:09.161Z,82.84
2018-12-25T02:02:09.151Z,83.60
2018-12-25T02:03:09.143Z,83.70
2018-12-25T02:04:09.133Z,83.35
2018-12-25T02:05:09.118Z,84.01
2018-12-25T02:06:09.119Z,84.01
2018-12-25T02:07:09.094Z,83.50
2018-12-25T02:08:09.084Z,84.01
2018-12-25T02:09:09.073Z,83.70
2018-12-25T02:10:09.062Z,83.81
2018-12-25T02:11:09.051Z,83.35
2018-12-25T02:12:09.040Z,83.19
2018-12-25T02:13:09.027Z,83.15
2018-12-25T02:14:09.018Z,83.08
2018-12-25T02:15:09.007Z,82.84
2018-12-25T02:16:08.999Z,83.19
2018-12-25T02:17:08.987Z,83.05
2018-12-25T02:18:08.974Z,82.53
2018-12-25T02:19:08.962Z,82.73
2018-12-25T02:20:08.956Z,82.77
2018-12-25T02:21:08.947Z,82.84
2018-12-25T02:22:08.936Z,82.84
2018-12-25T02:23:08.921Z,83.97
2018-12-25T02:24:08.913Z,83.50
2018-12-25T02:25:08.901Z,83.77
2018-12-25T02:26:08.886Z,84.22
2018-12-25T02:27:08.880Z,83.81
2018-12-25T02:28:08.867Z,83.87
2018-12-25T02:29:08.852Z,83.60
2018-12-25T02:30:08.844Z,83.81
2018-12-25T02:31:08.830Z,84.01
2018-12-25T02:32:08.824Z,84.22
2018-12-25T02:33:08.810Z,83.60
2018-12-25T02:34:08.798Z,83.87
2018-12-25T02:35:08.788Z,83.91
2018-12-25T02:36:08.784Z,83.66
2018-12-25T02:37:08.765Z,83.56
2018-12-25T02:38:08.753Z,83.66
2018-12-25T02:39:08.744Z,83.77
2018-12-25T02:40:08.732Z,83.77
2018-12-25T02:41:08.728Z,83.56
2018-12-25T02:42:08.713Z,83.25
2018-12-25T02:43:08.700Z,84.08
2018-12-25T02:44:08.688Z,83.35
2018-12-25T02:45:08.677Z,83.87
2018-12-25T02:46:08.665Z,83.94
2018-12-25T02:47:08.658Z,84.08
2018-12-25T02:48:08.651Z,83.87
2018-12-25T02:49:08.633Z,84.49
2018-12-25T02:50:08.628Z,84.28
2018-12-25T02:51:08.612Z,83.94
2018-12-25T02:52:08.599Z,84.08
2018-12-25T02:53:08.589Z,84.04
2018-12-25T02:54:08.579Z,83.66
2018-12-25T02:55:08.565Z,83.73
2018-12-25T02:56:08.554Z,83.83
2018-12-25T02:57:08.674Z,83.42
2018-12-25T02:58:08.540Z,83.21
2018-12-25T02:59:08.523Z,83.94
2018-12-25T03:00:08.516Z,83.52
2018-12-25T03:01:08.501Z,83.94
2018-12-25T03:02:08.491Z,83.52
2018-12-25T03:03:08.479Z,84.04
2018-12-25T03:04:08.477Z,83.83
2018-12-25T03:05:08.463Z,84.66
2018-12-25T03:06:08.452Z,85.07
2018-12-25T03:07:08.440Z,85.07
2018-12-25T03:08:08.425Z,85.28
2018-12-25T03:09:08.411Z,85.49
2018-12-25T03:10:08.437Z,85.07
2018-12-25T03:11:08.395Z,84.86
2018-12-25T03:12:08.380Z,85.21
2018-12-25T03:13:08.371Z,85.21
2018-12-25T03:14:08.364Z,85.49
2018-12-25T03:15:08.347Z,85.38
2018-12-25T03:16:08.335Z,85.52
2018-12-25T03:17:08.335Z,85.18
2018-12-25T03:18:08.311Z,85.07
2018-12-25T03:19:08.302Z,85.18
2018-12-25T03:20:08.293Z,84.97
2018-12-25T03:21:08.283Z,85.07
2018-12-25T03:22:08.279Z,85.28
2018-12-25T03:23:08.265Z,85.28
2018-12-25T03:24:08.252Z,85.18
2018-12-25T03:25:08.241Z,84.86
2018-12-25T03:26:08.226Z,85.28
2018-12-25T03:27:08.225Z,85.59
2018-12-25T03:28:08.208Z,85.18
2018-12-25T03:29:08.202Z,85.28
2018-12-25T03:30:08.194Z,85.18
2018-12-25T03:31:08.171Z,84.97
2018-12-25T03:32:08.159Z,85.38
2018-12-25T03:33:08.154Z,85.59
2018-12-25T03:34:08.141Z,85.42
2018-12-25T03:35:08.130Z,85.38
2018-12-25T03:36:08.113Z,85.07
2018-12-25T03:37:08.102Z,85.07
2018-12-25T03:38:08.098Z,85.07
2018-12-25T03:39:08.088Z,84.86
2018-12-25T03:40:08.075Z,84.97
2018-12-25T03:41:08.062Z,84.86
2018-12-25T03:42:08.053Z,84.35
2018-12-25T03:43:08.043Z,84.76
2018-12-25T03:44:08.028Z,85.28
2018-12-25T03:45:08.014Z,85.07
2018-12-25T03:46:08.005Z,85.07
2018-12-25T03:47:08.010Z,85.28
2018-12-25T03:48:07.982Z,85.18
2018-12-25T03:49:07.970Z,84.76
2018-12-25T03:50:10.786Z,84.66
2018-12-25T03:51:07.948Z,85.07
2018-12-25T03:52:07.940Z,85.07
2018-12-25T03:53:07.928Z,85.07
2018-12-25T03:54:07.919Z,85.49
2018-12-25T03:55:07.905Z,85.49
2018-12-25T03:56:07.892Z,85.59
2018-12-25T03:57:07.885Z,85.49
2018-12-25T03:58:07.869Z,85.49
2018-12-25T03:59:07.858Z,85.07
2018-12-25T04:00:07.850Z,85.18
2018-12-25T04:01:07.840Z,84.55
2018-12-25T04:02:07.826Z,84.45
2018-12-25T04:03:07.817Z,84.76
2018-12-25T04:04:07.809Z,84.35
2018-12-25T04:05:07.794Z,84.25
2018-12-25T04:06:07.785Z,83.94
2018-12-25T04:07:07.780Z,83.94
2018-12-25T04:08:07.767Z,83.69
2018-12-25T04:09:07.753Z,83.38
2018-12-25T04:10:07.750Z,83.59
2018-12-25T04:11:07.728Z,83.17
2018-12-25T04:12:07.722Z,83.38
2018-12-25T04:13:07.705Z,83.07
2018-12-25T04:14:07.702Z,83.07
2018-12-25T04:15:07.685Z,82.86
2018-12-25T04:16:07.679Z,82.34
2018-12-25T04:17:07.662Z,82.76
2018-12-25T04:18:07.656Z,82.72
2018-12-25T04:19:07.640Z,82.51
2018-12-25T04:20:07.626Z,82.76
2018-12-25T04:21:07.618Z,82.65
2018-12-25T04:22:07.636Z,82.04
2018-12-25T04:23:07.593Z,82.86
2018-12-25T04:24:07.586Z,82.97
2018-12-25T04:25:07.571Z,82.55
2018-12-25T04:26:07.561Z,82.76
2018-12-25T04:27:07.551Z,82.86
2018-12-25T04:28:07.539Z,82.65
2018-12-25T04:29:07.529Z,82.65
2018-12-25T04:30:07.520Z,82.76
2018-12-25T04:31:07.513Z,82.65
2018-12-25T04:32:07.496Z,82.83
2018-12-25T04:33:07.485Z,82.72
2018-12-25T04:34:07.471Z,82.83
2018-12-25T04:35:07.461Z,82.51
2018-12-25T04:36:07.450Z,82.51
2018-12-25T04:37:07.443Z,82.20
2018-12-25T04:38:07.431Z,82.25
2018-12-25T04:39:07.416Z,82.10
2018-12-25T04:40:07.411Z,82.10
2018-12-25T04:41:07.401Z,81.79
2018-12-25T04:42:07.383Z,81.59
2018-12-25T04:43:07.374Z,81.69
2018-12-25T04:44:07.360Z,81.69
2018-12-25T04:45:07.352Z,81.48
2018-12-25T04:46:07.339Z,81.48
2018-12-25T04:47:07.328Z,81.38
2018-12-25T04:48:07.317Z,81.69
2018-12-25T04:49:07.307Z,81.59
2018-12-25T04:50:07.296Z,82.10
2018-12-25T04:51:07.284Z,82.45
2018-12-25T04:52:07.275Z,82.25
2018-12-25T04:53:07.267Z,82.31
2018-12-25T04:54:07.263Z,81.79
2018-12-25T04:55:07.240Z,81.38
2018-12-25T04:56:07.229Z,81.59
2018-12-25T04:58:07.206Z,81.48
2018-12-25T04:59:07.212Z,81.59
2018-12-25T05:00:07.185Z,81.28
2018-12-25T05:01:07.175Z,80.93
2018-12-25T05:02:07.162Z,81.45
2018-12-25T05:03:07.151Z,80.96
2018-12-25T05:04:07.143Z,81.28
2018-12-25T05:05:07.131Z,80.96
2018-12-25T05:06:07.122Z,81.28
2018-12-25T05:07:07.112Z,81.48
2018-12-25T05:08:07.097Z,81.17
2018-12-25T05:09:07.086Z,80.96
2018-12-25T05:10:07.075Z,80.24
2018-12-25T05:11:07.063Z,80.86
2018-12-25T05:12:07.057Z,80.96
2018-12-25T05:13:07.043Z,80.76
2018-12-25T05:14:07.037Z,80.24
2018-12-25T05:15:07.026Z,79.62
2018-12-25T05:16:07.006Z,80.24
2018-12-25T05:17:06.999Z,79.73
2018-12-25T05:18:06.986Z,79.83
2018-12-25T05:19:06.977Z,80.14
2018-12-25T05:20:06.964Z,79.83
2018-12-25T05:21:06.951Z,80.14
2018-12-25T05:22:06.943Z,79.73
2018-12-25T05:23:06.931Z,79.93
2018-12-25T05:24:06.918Z,80.14
2018-12-25T05:25:06.908Z,80.35
2018-12-25T05:26:06.896Z,79.83
2018-12-25T05:27:06.888Z,79.73
2018-12-25T05:28:06.874Z,79.83
2018-12-25T05:29:06.870Z,79.73
2018-12-25T05:30:06.854Z,80.04
2018-12-25T05:31:06.842Z,80.14
2018-12-25T05:32:06.832Z,80.24
2018-12-25T05:33:06.819Z,80.14
2018-12-25T05:34:06.808Z,79.93
2018-12-25T05:35:06.796Z,80.24
2018-12-25T05:36:06.788Z,79.55
2018-12-25T05:38:06.764Z,79.62
2018-12-25T05:39:06.752Z,80.14
2018-12-25T05:40:06.742Z,80.35
2018-12-25T05:43:06.709Z,80.04
2018-12-25T05:45:06.687Z,79.01
2018-12-25T05:46:06.683Z,79.32
2018-12-25T05:47:06.664Z,79.11
2018-12-25T05:48:06.654Z,79.11
2018-12-25T05:49:06.645Z,79.11
2018-12-25T05:50:06.632Z,79.01
2018-12-25T05:51:06.620Z,79.11
2018-12-25T05:52:06.611Z,78.59
2018-12-25T05:53:06.600Z,79.21
2018-12-25T05:54:06.585Z,79.01
2018-12-25T05:55:06.575Z,78.59
2018-12-25T05:56:06.564Z,78.73
2018-12-25T05:58:06.542Z,79.01
2018-12-25T05:59:06.535Z,79.32
2018-12-25T06:00:06.525Z,78.38
2018-12-25T06:01:06.506Z,78.38
2018-12-25T06:02:06.496Z,78.59
2018-12-25T06:03:06.487Z,78.28
2018-12-25T06:04:06.474Z,78.59
2018-12-25T06:06:06.450Z,79.25
2018-12-25T06:07:06.451Z,78.94
2018-12-25T06:10:06.412Z,78.42
2018-12-25T06:11:06.398Z,78.42
2018-12-25T06:12:06.392Z,78.73
2018-12-25T06:13:06.373Z,78.83
2018-12-25T06:15:06.354Z,78.94
2018-12-25T06:16:06.343Z,78.94
2018-12-25T06:17:06.329Z,78.94
2018-12-25T06:18:06.331Z,78.94
2018-12-25T06:20:06.343Z,78.52
2018-12-25T06:21:06.347Z,78.52
2018-12-25T06:23:06.283Z,78.42
2018-12-25T06:24:06.287Z,78.11
2018-12-25T06:25:06.292Z,78.42
2018-12-25T06:26:06.229Z,78.42
2018-12-25T06:28:06.206Z,78.49
2018-12-25T06:29:06.195Z,78.73
2018-12-25T06:30:06.187Z,77.90
2018-12-25T06:31:06.171Z,78.63
2018-12-25T06:32:06.162Z,78.73
2018-12-25T06:33:06.154Z,78.11
2018-12-25T06:34:06.146Z,77.80
2018-12-25T06:35:06.129Z,77.77
2018-12-25T06:36:06.121Z,77.60
2018-12-25T06:37:06.110Z,77.97
2018-12-25T06:38:06.097Z,78.73
2018-12-25T06:39:06.087Z,77.87
2018-12-25T06:40:06.070Z,78.32
2018-12-25T06:41:06.065Z,78.00
2018-12-25T06:42:06.050Z,77.70
2018-12-25T06:43:06.042Z,78.00
2018-12-25T06:44:06.031Z,78.63
2018-12-25T06:45:06.018Z,78.83
2018-12-25T06:46:06.005Z,78.00
2018-12-25T06:47:05.994Z,78.42
2018-12-25T06:48:05.981Z,77.90
2018-12-25T06:49:05.969Z,78.00
2018-12-25T06:50:05.960Z,77.90
2018-12-25T06:51:05.947Z,78.00
2018-12-25T06:52:05.936Z,78.52
2018-12-25T06:53:05.930Z,77.80
2018-12-25T06:54:05.920Z,77.49
2018-12-25T06:55:05.903Z,77.45
2018-12-25T06:56:05.895Z,77.14
2018-12-25T06:57:05.886Z,77.14
2018-12-25T06:58:05.869Z,77.66
2018-12-25T06:59:05.865Z,77.35
2018-12-25T07:00:07.037Z,77.60
2018-12-25T07:01:05.836Z,77.80
2018-12-25T07:02:05.828Z,77.90
2018-12-25T07:03:05.817Z,78.00
2018-12-25T07:04:05.802Z,77.35
2018-12-25T07:05:05.794Z,77.80
2018-12-25T07:06:05.783Z,77.35
2018-12-25T07:07:05.771Z,77.60
2018-12-25T07:08:05.756Z,78.00
2018-12-25T07:09:05.747Z,77.70
2018-12-25T07:10:05.734Z,77.90
2018-12-25T07:11:05.724Z,77.87
2018-12-25T07:12:05.712Z,78.52
2018-12-25T07:13:05.701Z,78.63
2018-12-25T07:14:05.696Z,78.52
2018-12-25T07:15:05.679Z,78.52
2018-12-25T07:16:05.668Z,78.11
2018-12-25T07:17:05.735Z,78.69
2018-12-25T07:18:05.646Z,77.87
2018-12-25T07:19:05.634Z,78.32
2018-12-25T07:20:05.623Z,78.63
2018-12-25T07:21:12.140Z,78.94
2018-12-25T07:22:30.079Z,79.15
2018-12-25T07:23:30.069Z,78.90
2018-12-25T07:24:30.062Z,78.80
2018-12-25T07:25:30.047Z,78.90
2018-12-25T07:26:30.034Z,78.90
2018-12-25T07:27:30.023Z,79.11
2018-12-25T07:28:30.013Z,79.11
2018-12-25T07:29:30.004Z,79.11
2018-12-25T07:30:29.994Z,78.59
2018-12-25T07:31:29.979Z,79.01
2018-12-25T07:32:29.970Z,78.69
2018-12-25T07:33:29.967Z,79.11
2018-12-25T07:34:29.945Z,79.45
2018-12-25T07:35:29.938Z,79.52
2018-12-25T07:36:29.922Z,79.83
2018-12-25T07:37:29.910Z,79.73
2018-12-25T07:38:29.901Z,79.66
2018-12-25T07:39:29.888Z,79.76
2018-12-25T07:40:29.878Z,80.07
2018-12-25T07:41:29.867Z,80.38
2018-12-25T07:42:29.937Z,80.04
2018-12-25T07:43:29.844Z,80.04
2018-12-25T07:44:29.831Z,80.04
2018-12-25T07:45:29.827Z,79.76
2018-12-25T07:46:29.812Z,80.18
2018-12-25T07:47:29.799Z,80.80
2018-12-25T07:48:29.787Z,80.70
2018-12-25T07:49:29.778Z,80.49
2018-12-25T07:50:29.765Z,80.56
2018-12-25T07:51:29.755Z,81.31
2018-12-25T07:52:29.749Z,81.42
2018-12-25T07:53:29.738Z,81.21
2018-12-25T07:54:29.728Z,80.38
2018-12-25T07:55:29.708Z,81.21
2018-12-25T07:56:29.705Z,80.35
2018-12-25T07:57:29.686Z,81.31
2018-12-25T07:58:29.676Z,80.04
2018-12-25T07:59:29.665Z,79.73
2018-12-25T08:00:29.656Z,80.45
2018-12-25T08:01:29.642Z,80.56
2018-12-25T08:02:29.634Z,80.24
2018-12-25T08:03:29.627Z,80.24
2018-12-25T08:04:29.609Z,80.56
2018-12-25T08:05:29.598Z,79.93
2018-12-25T08:06:29.588Z,80.24
2018-12-25T08:07:29.579Z,80.45
2018-12-25T08:08:29.569Z,80.04
2018-12-25T08:09:29.553Z,80.14
2018-12-25T08:10:29.646Z,80.04
2018-12-25T08:11:29.535Z,80.14
2018-12-25T08:12:29.521Z,79.93
2018-12-25T08:13:29.510Z,79.93
2018-12-25T08:14:29.501Z,79.73
2018-12-25T08:15:29.490Z,80.14
2018-12-25T08:16:29.476Z,80.24
2018-12-25T08:17:29.468Z,80.35
2018-12-25T08:18:29.453Z,79.93
2018-12-25T08:19:29.452Z,79.73
2018-12-25T08:20:29.436Z,79.62
2018-12-25T08:21:29.572Z,80.04
2018-12-25T08:22:29.413Z,79.83
2018-12-25T08:23:29.398Z,79.41
2018-12-25T08:24:29.393Z,79.58
2018-12-25T08:25:29.378Z,78.66
2018-12-25T08:26:29.365Z,78.55
2018-12-25T08:27:29.355Z,78.97
2018-12-25T08:28:29.349Z,78.90
2018-12-25T08:29:29.331Z,79.07
2018-12-25T08:30:29.327Z,78.45
2018-12-25T08:31:29.309Z,78.76
2018-12-25T08:32:29.305Z,79.18
2018-12-25T08:33:29.287Z,78.86
2018-12-25T08:34:29.278Z,78.66
2018-12-25T08:35:29.265Z,78.76
2018-12-25T08:36:29.257Z,79.07
2018-12-25T08:37:29.251Z,78.97
2018-12-25T08:38:29.232Z,79.18
2018-12-25T08:39:29.223Z,78.35
2018-12-25T08:40:29.211Z,78.45
2018-12-25T08:41:29.198Z,78.24
2018-12-25T08:42:29.187Z,78.24
2018-12-25T08:43:29.175Z,78.45
2018-12-25T08:44:29.168Z,78.24
2018-12-25T08:45:29.152Z,78.55
2018-12-25T08:46:29.142Z,78.45
2018-12-25T08:47:29.134Z,78.66
2018-12-25T08:48:29.123Z,78.24
2018-12-25T08:49:29.111Z,78.66
2018-12-25T08:50:29.100Z,78.76
2018-12-25T08:51:37.400Z,77.52
2018-12-25T08:52:53.558Z,77.49
2018-12-25T08:53:53.558Z,77.49
2018-12-25T08:54:53.541Z,77.69
2018-12-25T08:55:53.534Z,77.07
2018-12-25T08:56:53.519Z,77.28
2018-12-25T08:57:54.870Z,77.07
2018-12-25T08:58:53.494Z,77.14
2018-12-25T08:59:53.479Z,76.83
2018-12-25T09:00:53.470Z,77.07
2018-12-25T09:01:53.457Z,76.77
2018-12-25T09:02:53.449Z,76.42
2018-12-25T09:03:53.435Z,76.87
2018-12-25T09:04:53.428Z,76.42
2018-12-25T09:05:53.411Z,76.77
2018-12-25T09:06:53.400Z,76.25
2018-12-25T09:07:53.389Z,77.28
2018-12-25T09:08:53.378Z,77.28
2018-12-25T09:09:53.368Z,76.87
2018-12-25T09:10:53.359Z,77.07
2018-12-25T09:11:53.348Z,76.87
2018-12-25T09:12:53.338Z,76.66
2018-12-25T09:13:53.323Z,76.62
2018-12-25T09:14:53.312Z,76.45
2018-12-25T09:15:53.298Z,76.14
2018-12-25T09:16:53.294Z,76.25
2018-12-25T09:17:53.284Z,76.01
2018-12-25T09:18:53.264Z,76.11
2018-12-25T09:19:53.263Z,76.11
2018-12-25T09:20:53.248Z,75.59
2018-12-25T09:21:53.231Z,75.59
2018-12-25T09:22:53.223Z,76.21
2018-12-25T09:23:53.217Z,76.14
2018-12-25T09:24:53.205Z,76.01
2018-12-25T09:25:53.195Z,76.77
2018-12-25T09:26:53.175Z,76.01
2018-12-25T09:27:53.163Z,76.42
2018-12-25T09:28:53.152Z,75.80
2018-12-25T09:29:53.142Z,75.45
2018-12-25T09:30:53.130Z,76.11
2018-12-25T09:31:53.120Z,75.70
2018-12-25T09:32:53.108Z,75.49
2018-12-25T09:33:53.097Z,75.36
2018-12-25T09:34:53.086Z,75.36
2018-12-25T09:35:53.074Z,75.04
2018-12-25T09:36:53.072Z,75.70
2018-12-25T09:37:53.057Z,76.01
2018-12-25T09:38:53.043Z,75.70
2018-12-25T09:39:53.034Z,76.11
2018-12-25T09:40:53.018Z,76.08
2018-12-25T09:41:53.008Z,75.56
2018-12-25T09:42:52.998Z,75.76
2018-12-25T09:43:52.984Z,75.04
2018-12-25T09:44:52.975Z,74.63
2018-12-25T09:45:52.962Z,74.90
2018-12-25T09:46:52.951Z,74.60
2018-12-25T09:47:52.941Z,74.43
2018-12-25T09:48:52.928Z,74.90
2018-12-25T09:49:52.918Z,74.80
2018-12-25T09:50:52.908Z,74.80
2018-12-25T09:51:54.576Z,74.60
2018-12-25T09:52:52.887Z,74.49
2018-12-25T09:53:52.875Z,74.39
2018-12-25T09:54:52.859Z,74.80
2018-12-25T09:55:52.849Z,75.01
2018-12-25T09:56:52.839Z,74.49
2018-12-25T09:57:52.826Z,74.39
2018-12-25T09:58:52.815Z,74.87
2018-12-25T09:59:52.804Z,74.80
2018-12-25T10:00:52.795Z,74.60
2018-12-25T10:01:52.779Z,74.49
2018-12-25T10:02:52.770Z,74.29
2018-12-25T10:03:52.764Z,74.08
2018-12-25T10:04:52.748Z,73.63
2018-12-25T10:05:52.738Z,74.15
2018-12-25T10:06:52.730Z,74.49
2018-12-25T10:07:52.712Z,74.39
2018-12-25T10:08:52.701Z,74.56
2018-12-25T10:09:52.694Z,73.98
2018-12-25T10:10:52.684Z,74.18
2018-12-25T10:11:52.669Z,74.39
2018-12-25T10:12:52.661Z,74.70
2018-12-25T10:13:52.646Z,74.70
2018-12-25T10:14:52.635Z,74.90
2018-12-25T10:15:52.623Z,75.62
2018-12-25T10:16:52.614Z,74.80
2018-12-25T10:17:52.599Z,74.70
2018-12-25T10:18:52.591Z,74.29
2018-12-25T10:19:52.578Z,73.95
2018-12-25T10:20:52.571Z,73.63
2018-12-25T10:21:52.559Z,73.63
2018-12-25T10:22:52.548Z,73.50
2018-12-25T10:23:52.535Z,73.53
2018-12-25T10:24:52.524Z,73.63
2018-12-25T10:25:52.515Z,73.63
2018-12-25T10:26:52.498Z,74.15
2018-12-25T10:27:52.488Z,74.08
2018-12-25T10:28:52.482Z,74.29
2018-12-25T10:29:52.471Z,74.56
2018-12-25T10:30:52.454Z,74.60
2018-12-25T10:31:52.441Z,74.25
2018-12-25T10:32:52.431Z,74.15
2018-12-25T10:33:52.421Z,73.95
2018-12-25T10:34:52.408Z,74.15
2018-12-25T10:35:52.403Z,73.95
2018-12-25T10:36:52.388Z,73.84
2018-12-25T10:37:52.380Z,73.84
2018-12-25T10:38:52.364Z,73.63
2018-12-25T10:39:52.353Z,74.05
2018-12-25T10:40:52.344Z,73.43
2018-12-25T10:41:52.337Z,73.50
2018-12-25T10:42:52.319Z,73.63
2018-12-25T10:43:52.307Z,73.22
2018-12-25T10:44:52.296Z,73.33
2018-12-25T10:45:52.286Z,73.33
2018-12-25T10:46:52.274Z,73.50
2018-12-25T10:47:52.262Z,73.29
2018-12-25T10:48:52.252Z,73.40
2018-12-25T10:49:52.242Z,73.63
2018-12-25T10:50:52.238Z,73.19
2018-12-25T10:51:52.239Z,73.19
2018-12-25T10:52:52.253Z,73.50
2018-12-25T10:53:52.198Z,73.33
2018-12-25T10:54:52.190Z,73.08
2018-12-25T10:55:52.194Z,73.22
2018-12-25T10:56:52.196Z,73.50
2018-12-25T10:57:52.198Z,73.19
2018-12-25T10:58:52.138Z,73.33
2018-12-25T10:59:52.125Z,73.53
2018-12-25T11:00:52.114Z,73.19
2018-12-25T11:01:52.103Z,74.12
2018-12-25T11:02:52.091Z,72.98
2018-12-25T11:03:52.081Z,73.19
2018-12-25T11:04:52.074Z,73.60
2018-12-25T11:05:52.058Z,72.57
2018-12-25T11:06:52.048Z,72.68
2018-12-25T11:07:52.036Z,72.54
2018-12-25T11:08:52.023Z,72.44
2018-12-25T11:09:52.014Z,72.64
2018-12-25T11:10:52.001Z,72.23
2018-12-25T11:11:51.992Z,72.85
2018-12-25T11:12:51.980Z,72.23
2018-12-25T11:13:51.966Z,72.02
2018-12-25T11:14:51.955Z,72.33
2018-12-25T11:15:51.946Z,71.92
2018-12-25T11:16:51.933Z,72.13
2018-12-25T11:17:51.925Z,71.78
2018-12-25T11:18:51.911Z,72.19
2018-12-25T11:19:51.906Z,72.09
2018-12-25T11:20:51.919Z,72.23
2018-12-25T11:21:51.878Z,73.57
2018-12-25T11:22:51.865Z,72.19
2018-12-25T11:23:51.860Z,72.09
2018-12-25T11:24:51.848Z,71.58
2018-12-25T11:25:51.838Z,72.02
2018-12-25T11:26:51.823Z,72.02
2018-12-25T11:27:51.810Z,72.09
2018-12-25T11:28:51.806Z,71.58
2018-12-25T11:29:51.787Z,71.68
2018-12-25T11:30:51.782Z,71.68
2018-12-25T11:31:51.771Z,71.68
2018-12-25T11:32:51.757Z,71.58
2018-12-25T11:33:51.743Z,71.55
2018-12-25T11:34:51.730Z,71.37
2018-12-25T11:35:51.719Z,71.34
2018-12-25T11:36:51.708Z,71.68
2018-12-25T11:37:51.701Z,71.34
2018-12-25T11:38:51.686Z,71.55
2018-12-25T11:39:51.674Z,71.34
2018-12-25T11:40:51.664Z,71.24
2018-12-25T11:41:51.651Z,71.65
2018-12-25T11:42:51.642Z,71.96
2018-12-25T11:43:51.632Z,71.44
2018-12-25T11:44:51.616Z,71.75
2018-12-25T11:45:51.606Z,71.85
2018-12-25T11:46:51.597Z,70.93
2018-12-25T11:47:51.586Z,71.78
2018-12-25T11:48:51.574Z,71.44
2018-12-25T11:49:51.570Z,71.96
2018-12-25T11:50:51.552Z,71.34
2018-12-25T11:51:51.540Z,71.65
2018-12-25T11:52:51.530Z,71.65
2018-12-25T11:53:51.520Z,71.03
2018-12-25T11:54:51.503Z,71.34
2018-12-25T11:55:51.492Z,71.13
2018-12-25T11:56:51.481Z,70.72
2018-12-25T11:57:51.472Z,70.93
2018-12-25T11:58:51.468Z,71.44
2018-12-25T11:59:51.448Z,71.44
2018-12-25T12:00:51.438Z,71.65
2018-12-25T12:01:51.429Z,71.75
2018-12-25T12:02:51.421Z,71.34
2018-12-25T12:03:51.404Z,71.96
2018-12-25T12:04:51.396Z,71.44
2018-12-25T12:05:51.385Z,71.34
2018-12-25T12:06:51.373Z,70.93
2018-12-25T12:07:51.362Z,71.85
2018-12-25T12:08:51.346Z,71.75
2018-12-25T12:09:51.337Z,71.75
2018-12-25T12:10:51.324Z,71.65
2018-12-25T12:11:51.312Z,71.65
2018-12-25T12:12:51.303Z,71.44
2018-12-25T12:13:51.290Z,71.55
2018-12-25T12:14:51.279Z,71.34
2018-12-25T12:15:51.268Z,71.85
2018-12-25T12:16:51.257Z,72.16
2018-12-25T12:17:51.245Z,71.75
2018-12-25T12:18:51.238Z,71.75
2018-12-25T12:19:51.225Z,71.44
2018-12-25T12:20:51.216Z,71.34
2018-12-25T12:21:51.202Z,71.34
2018-12-25T12:22:51.194Z,71.55
2018-12-25T12:23:51.178Z,70.83
2018-12-25T12:24:51.168Z,71.20
2018-12-25T12:25:51.167Z,71.65
2018-12-25T12:26:51.143Z,71.55
2018-12-25T12:27:51.134Z,71.65
2018-12-25T12:28:51.123Z,71.55
2018-12-25T12:29:51.111Z,71.44
2018-12-25T12:30:51.098Z,71.55
2018-12-25T12:31:51.089Z,71.03
2018-12-25T12:32:51.167Z,71.65
2018-12-25T12:33:51.066Z,71.75
2018-12-25T12:34:51.057Z,71.34
2018-12-25T12:35:51.124Z,71.65
2018-12-25T12:36:51.031Z,70.93
2018-12-25T12:37:51.027Z,71.75
2018-12-25T12:38:51.019Z,71.65
2018-12-25T12:39:50.999Z,72.16
2018-12-25T12:40:50.986Z,71.03
2018-12-25T12:41:50.978Z,71.55
2018-12-25T12:42:50.965Z,71.34
2018-12-25T12:43:50.960Z,71.55
2018-12-25T12:44:50.941Z,71.44
2018-12-25T12:45:50.931Z,71.55
2018-12-25T12:46:50.919Z,70.59
2018-12-25T12:47:50.909Z,70.38
2018-12-25T12:48:50.898Z,70.41
2018-12-25T12:49:51.055Z,71.13
2018-12-25T12:50:50.877Z,70.41
2018-12-25T12:51:50.870Z,70.31
2018-12-25T12:52:50.853Z,70.93
2018-12-25T12:53:50.845Z,70.83
2018-12-25T12:54:50.835Z,70.93
2018-12-25T12:55:50.819Z,71.85
2018-12-25T12:56:50.809Z,71.44
2018-12-25T12:57:50.796Z,71.75
2018-12-25T12:58:50.786Z,71.65
2018-12-25T12:59:50.774Z,71.34
2018-12-25T13:00:50.763Z,71.65
2018-12-25T13:01:50.752Z,71.85
2018-12-25T13:02:50.742Z,71.58
2018-12-25T13:03:50.729Z,71.65
2018-12-25T13:04:50.719Z,71.58
2018-12-25T13:05:50.706Z,71.37